createdAt,value
2024-04-01T00:00:46.423Z,35.07
2024-04-01T00:01:46.413Z,35.05
2024-04-01T00:02:46.425Z,35.02
2024-04-01T00:03:46.407Z,35.05
2024-04-01T00:04:46.395Z,35.04
2024-04-01T00:05:46.384Z,35.05
2024-04-01T00:06:46.376Z,35.01
2024-04-01T00:07:46.368Z,35.05
2024-04-01T00:08:46.358Z,35.04
2024-04-01T00:09:46.347Z,35.04
2024-04-01T00:10:46.335Z,35.06
2024-04-01T00:11:46.316Z,35.04
2024-04-01T00:12:46.321Z,35.05
2024-04-01T00:13:46.306Z,35.03
2024-04-01T00:14:46.294Z,35.02
2024-04-01T00:15:46.288Z,35.05
2024-04-01T00:16:46.292Z,35.02
2024-04-01T00:17:46.277Z,35.06
2024-04-01T00:18:46.287Z,35.02
2024-04-01T00:19:46.282Z,35.05
2024-04-01T00:20:46.268Z,35.05
2024-04-01T00:21:46.260Z,35.05
2024-04-01T00:22:46.255Z,35.05
2024-04-01T00:23:46.261Z,35.04
2024-04-01T00:24:46.230Z,35.03
2024-04-01T00:25:46.225Z,35.06
2024-04-01T00:26:46.239Z,35.01
2024-04-01T00:27:46.218Z,35.01
2024-04-01T00:28:46.233Z,35.04
2024-04-01T00:29:46.217Z,34.99
2024-04-01T00:30:46.233Z,35.03
2024-04-01T00:31:46.210Z,35.00
2024-04-01T00:32:46.246Z,35.05
2024-04-01T00:33:46.220Z,35.03
2024-04-01T00:34:46.209Z,35.01
2024-04-01T00:35:46.197Z,35.06
2024-04-01T00:36:46.187Z,35.04
2024-04-01T00:37:46.197Z,35.00
2024-04-01T00:38:46.172Z,35.04
2024-04-01T00:39:46.169Z,35.04
2024-04-01T00:40:46.153Z,35.01
2024-04-01T00:41:46.152Z,35.04
2024-04-01T00:42:46.150Z,35.01
2024-04-01T00:43:46.142Z,35.06
2024-04-01T00:44:46.141Z,35.04
2024-04-01T00:45:46.126Z,35.04
2024-04-01T00:46:46.120Z,35.04
2024-04-01T00:47:46.121Z,35.05
2024-04-01T00:48:46.123Z,35.04
2024-04-01T00:49:46.113Z,35.03
2024-04-01T00:50:46.107Z,34.99
2024-04-01T00:51:46.089Z,35.05
2024-04-01T00:52:46.087Z,35.01
2024-04-01T00:53:46.078Z,35.05
2024-04-01T00:54:46.062Z,35.05
2024-04-01T00:55:46.050Z,35.05
2024-04-01T00:56:46.048Z,35.00
2024-04-01T00:57:46.030Z,35.03
2024-04-01T00:58:46.022Z,35.01
2024-04-01T00:59:46.006Z,35.04
2024-04-01T01:00:46.020Z,35.02
2024-04-01T01:01:45.990Z,35.01
2024-04-01T01:02:45.978Z,35.00
2024-04-01T01:03:45.982Z,35.00
2024-04-01T01:04:45.992Z,35.04
2024-04-01T01:05:46.027Z,34.99
2024-04-01T01:06:45.958Z,35.01
2024-04-01T01:07:45.949Z,35.01
2024-04-01T01:08:45.945Z,35.05
2024-04-01T01:09:45.936Z,34.99
2024-04-01T01:10:45.930Z,35.02
2024-04-01T01:11:45.918Z,35.05
2024-04-01T01:12:45.920Z,35.00
2024-04-01T01:13:45.974Z,35.01
2024-04-01T01:14:45.973Z,35.00
2024-04-01T01:15:46.002Z,35.01
2024-04-01T01:16:46.030Z,35.03
2024-04-01T01:17:46.057Z,35.00
2024-04-01T01:18:46.055Z,35.03
2024-04-01T01:19:46.075Z,35.02
2024-04-01T01:20:46.091Z,35.04
2024-04-01T01:21:46.100Z,35.00
2024-04-01T01:22:46.109Z,35.02
2024-04-01T01:23:46.104Z,35.03
2024-04-01T01:24:46.139Z,35.04
2024-04-01T01:25:46.171Z,35.04
2024-04-01T01:26:46.172Z,35.04
2024-04-01T01:27:46.235Z,35.05
2024-04-01T01:28:46.269Z,35.01
2024-04-01T01:29:46.302Z,35.04
2024-04-01T01:30:46.373Z,35.03
2024-04-01T01:31:46.401Z,35.00
2024-04-01T01:32:46.436Z,35.03
2024-04-01T01:33:46.433Z,35.03
2024-04-01T01:34:46.462Z,35.04
2024-04-01T01:35:46.492Z,34.99
2024-04-01T01:36:46.477Z,34.99
2024-04-01T01:37:46.527Z,35.03
2024-04-01T01:38:46.605Z,35.01
2024-04-01T01:39:46.613Z,35.05
2024-04-01T01:40:46.603Z,34.99
2024-04-01T01:41:46.594Z,35.00
2024-04-01T01:42:46.594Z,34.99
2024-04-01T01:43:46.589Z,34.99
2024-04-01T01:44:46.602Z,35.03
2024-04-01T01:45:46.600Z,35.05
2024-04-01T01:46:46.593Z,35.03
2024-04-01T01:47:46.584Z,34.99
2024-04-01T01:48:46.608Z,35.02
2024-04-01T01:49:46.607Z,35.03
2024-04-01T01:50:46.609Z,35.05
2024-04-01T01:51:46.623Z,35.04
2024-04-01T01:52:46.634Z,35.00
2024-04-01T01:53:46.620Z,35.03
2024-04-01T01:54:46.695Z,35.03
2024-04-01T01:55:46.690Z,35.03
2024-04-01T01:56:46.683Z,35.00
2024-04-01T01:57:46.684Z,35.05
2024-04-01T01:58:46.670Z,35.01
2024-04-01T01:59:46.680Z,35.01
2024-04-01T02:00:46.653Z,35.01
2024-04-01T02:01:46.660Z,34.98
2024-04-01T02:02:46.659Z,35.02
2024-04-01T02:03:46.664Z,34.95
2024-04-01T02:04:46.675Z,35.02
2024-04-01T02:05:46.676Z,34.98
2024-04-01T02:06:46.663Z,35.03
2024-04-01T02:07:46.645Z,35.03
2024-04-01T02:08:46.644Z,35.08
2024-04-01T02:09:46.704Z,35.03
2024-04-01T02:10:46.694Z,35.03
2024-04-01T02:11:46.703Z,35.04
2024-04-01T02:12:46.706Z,35.04
2024-04-01T02:13:46.722Z,35.01
2024-04-01T02:14:46.731Z,35.02
2024-04-01T02:15:46.741Z,35.01
2024-04-01T02:16:46.805Z,35.04
2024-04-01T02:17:46.836Z,35.03
2024-04-01T02:18:46.839Z,34.99
2024-04-01T02:19:46.863Z,35.01
2024-04-01T02:20:46.903Z,35.04
2024-04-01T02:21:46.914Z,35.01
2024-04-01T02:22:46.935Z,35.02
2024-04-01T02:23:46.934Z,35.04
2024-04-01T02:24:46.961Z,34.99
2024-04-01T02:25:46.980Z,35.04
2024-04-01T02:26:47.017Z,35.04
2024-04-01T02:27:47.045Z,35.01
2024-04-01T02:28:47.050Z,35.04
2024-04-01T02:29:47.107Z,35.02
2024-04-01T02:30:47.147Z,35.09
2024-04-01T02:31:47.187Z,35.02
2024-04-01T02:32:47.166Z,35.04
2024-04-01T02:33:47.161Z,35.06
2024-04-01T02:34:47.178Z,35.01
2024-04-01T02:35:47.204Z,35.04
2024-04-01T02:36:47.246Z,34.97
2024-04-01T02:37:47.281Z,34.98
2024-04-01T02:38:47.308Z,34.99
2024-04-01T02:39:47.316Z,35.02
2024-04-01T02:40:47.334Z,35.01
2024-04-01T02:41:47.353Z,34.97
2024-04-01T02:42:47.367Z,34.98
2024-04-01T02:43:47.386Z,34.98
2024-04-01T02:44:47.374Z,35.03
2024-04-01T02:45:47.403Z,35.04
2024-04-01T02:46:47.422Z,35.01
2024-04-01T02:47:47.424Z,35.02
2024-04-01T02:48:47.454Z,35.01
2024-04-01T02:49:47.477Z,34.98
2024-04-01T02:50:47.521Z,35.01
2024-04-01T02:51:47.571Z,35.02
2024-04-01T02:52:47.587Z,35.02
2024-04-01T02:53:47.605Z,35.01
2024-04-01T02:54:47.663Z,35.03
2024-04-01T02:55:47.705Z,35.01
2024-04-01T02:56:47.712Z,34.98
2024-04-01T02:57:47.717Z,35.02
2024-04-01T02:58:47.871Z,35.05
2024-04-01T02:59:47.941Z,34.99
2024-04-01T03:00:47.951Z,35.05
2024-04-01T03:01:47.947Z,35.04
2024-04-01T03:02:47.915Z,35.00
2024-04-01T03:03:47.923Z,35.01
2024-04-01T03:04:48.047Z,35.03
2024-04-01T03:05:48.019Z,35.02
2024-04-01T03:06:48.067Z,35.03
2024-04-01T03:07:48.129Z,35.02
2024-04-01T03:08:48.191Z,35.06
2024-04-01T03:09:48.227Z,35.02
2024-04-01T03:10:48.228Z,35.02
2024-04-01T03:11:48.289Z,35.05
2024-04-01T03:12:48.359Z,35.05
2024-04-01T03:13:48.394Z,35.03
2024-04-01T03:14:48.404Z,35.06
2024-04-01T03:15:48.430Z,34.99
2024-04-01T03:16:48.461Z,35.03
2024-04-01T03:17:48.495Z,35.07
2024-04-01T03:18:48.540Z,34.99
2024-04-01T03:19:48.576Z,35.00
2024-04-01T03:20:48.617Z,34.98
2024-04-01T03:21:48.615Z,35.03
2024-04-01T03:22:48.640Z,35.01
2024-04-01T03:23:50.437Z,35.05
2024-04-01T03:24:48.689Z,35.06
2024-04-01T03:25:48.676Z,35.03
2024-04-01T03:26:48.667Z,35.06
2024-04-01T03:27:48.649Z,35.02
2024-04-01T03:28:48.640Z,35.01
2024-04-01T03:29:48.648Z,35.05
2024-04-01T03:30:48.629Z,35.07
2024-04-01T03:31:48.652Z,35.01
2024-04-01T03:32:48.595Z,35.02
2024-04-01T03:33:48.605Z,35.06
2024-04-01T03:34:48.576Z,35.07
2024-04-01T03:35:48.561Z,35.05
2024-04-01T03:36:48.557Z,35.03
2024-04-01T03:37:48.550Z,35.03
2024-04-01T03:38:48.543Z,35.05
2024-04-01T03:39:48.524Z,35.05
2024-04-01T03:40:48.516Z,35.05
2024-04-01T03:41:48.523Z,35.05
2024-04-01T03:42:48.534Z,35.07
2024-04-01T03:43:48.497Z,35.02
2024-04-01T03:44:48.484Z,35.02
2024-04-01T03:45:48.479Z,35.01
2024-04-01T03:46:48.464Z,35.03
2024-04-01T03:47:48.467Z,35.06
2024-04-01T03:48:48.459Z,35.08
2024-04-01T03:49:48.445Z,35.06
2024-04-01T03:50:48.439Z,35.07
2024-04-01T03:51:48.430Z,35.05
2024-04-01T03:52:48.435Z,35.03
2024-04-01T03:53:48.414Z,35.05
2024-04-01T03:54:48.409Z,35.03
2024-04-01T03:55:48.399Z,35.02
2024-04-01T03:56:48.384Z,35.03
2024-04-01T03:57:48.380Z,35.03
2024-04-01T03:58:48.375Z,35.02
2024-04-01T03:59:48.386Z,35.05
2024-04-01T04:00:48.393Z,35.03
2024-04-01T04:01:48.365Z,35.06
2024-04-01T04:02:48.370Z,35.01
2024-04-01T04:03:48.362Z,35.02
2024-04-01T04:04:48.367Z,35.05
2024-04-01T04:05:48.358Z,35.07
2024-04-01T04:06:48.368Z,35.05
2024-04-01T04:07:48.357Z,35.02
2024-04-01T04:08:48.356Z,35.03
2024-04-01T04:09:48.334Z,35.06
2024-04-01T04:10:48.323Z,35.05
2024-04-01T04:11:48.323Z,35.08
2024-04-01T04:12:48.311Z,35.03
2024-04-01T04:13:48.308Z,35.06
2024-04-01T04:14:48.291Z,35.03
2024-04-01T04:15:48.285Z,35.07
2024-04-01T04:16:48.273Z,35.05
2024-04-01T04:17:48.268Z,35.10
2024-04-01T04:18:48.268Z,35.07
2024-04-01T04:19:48.258Z,35.05
2024-04-01T04:20:48.268Z,35.07
2024-04-01T04:21:48.285Z,35.07
2024-04-01T04:22:48.262Z,35.05
2024-04-01T04:23:48.281Z,35.05
2024-04-01T04:24:48.298Z,35.07
2024-04-01T04:25:48.266Z,35.05
2024-04-01T04:26:48.333Z,35.07
2024-04-01T04:27:48.294Z,35.07
2024-04-01T04:28:48.315Z,35.07
2024-04-01T04:29:48.189Z,35.05
2024-04-01T04:30:48.186Z,35.06
2024-04-01T04:31:48.184Z,35.07
2024-04-01T04:32:48.169Z,35.06
2024-04-01T04:33:48.169Z,35.05
2024-04-01T04:34:48.167Z,35.07
2024-04-01T04:35:48.180Z,35.08
2024-04-01T04:36:48.203Z,35.07
2024-04-01T04:37:48.252Z,35.07
2024-04-01T04:38:48.297Z,35.03
2024-04-01T04:39:48.508Z,35.09
2024-04-01T04:40:48.453Z,35.11
2024-04-01T04:41:48.496Z,35.06
2024-04-01T04:42:48.538Z,35.10
2024-04-01T04:43:48.556Z,35.06
2024-04-01T04:44:48.568Z,35.06
2024-04-01T04:45:48.578Z,35.07
2024-04-01T04:46:48.600Z,35.04
2024-04-01T04:47:48.659Z,35.05
2024-04-01T04:48:48.663Z,35.10
2024-04-01T04:49:55.950Z,35.12
2024-04-01T04:50:55.932Z,35.11
2024-04-01T04:51:55.927Z,35.10
2024-04-01T04:52:55.920Z,35.07
2024-04-01T04:53:55.915Z,35.06
2024-04-01T04:54:55.928Z,35.08
2024-04-01T04:55:55.922Z,35.09
2024-04-01T04:56:55.928Z,35.09
2024-04-01T04:57:55.912Z,35.10
2024-04-01T04:58:55.914Z,35.10
2024-04-01T04:59:55.904Z,35.11
2024-04-01T05:00:55.906Z,35.08
2024-04-01T05:01:55.917Z,35.13
2024-04-01T05:02:55.920Z,35.11
2024-04-01T05:03:55.924Z,35.10
2024-04-01T05:04:55.923Z,35.06
2024-04-01T05:05:55.910Z,35.08
2024-04-01T05:06:55.913Z,35.07
2024-04-01T05:07:55.902Z,35.06
2024-04-01T05:08:55.899Z,35.07
2024-04-01T05:09:55.897Z,35.09
2024-04-01T05:10:55.894Z,35.09
2024-04-01T05:11:55.875Z,35.10
2024-04-01T05:12:55.852Z,35.10
2024-04-01T05:13:55.852Z,35.11
2024-04-01T05:14:55.844Z,35.10
2024-04-01T05:15:55.840Z,35.09
2024-04-01T05:16:55.862Z,35.07
2024-04-01T05:17:55.826Z,35.09
2024-04-01T05:18:55.821Z,35.08
2024-04-01T05:19:55.822Z,35.09
2024-04-01T05:20:55.806Z,35.12
2024-04-01T05:21:55.804Z,35.05
2024-04-01T05:22:55.849Z,35.13
2024-04-01T05:23:55.810Z,35.06
2024-04-01T05:24:55.802Z,35.10
2024-04-01T05:25:55.820Z,35.07
2024-04-01T05:26:55.856Z,35.11
2024-04-01T05:27:55.882Z,35.09
2024-04-01T05:28:55.943Z,35.11
2024-04-01T05:29:55.994Z,35.10
2024-04-01T05:30:56.034Z,35.11
2024-04-01T05:31:56.128Z,35.07
2024-04-01T05:32:56.084Z,35.08
2024-04-01T05:33:56.103Z,35.10
2024-04-01T05:34:56.116Z,35.09
2024-04-01T05:35:56.124Z,35.10
2024-04-01T05:36:56.144Z,35.09
2024-04-01T05:37:56.155Z,35.10
2024-04-01T05:38:56.210Z,35.13
2024-04-01T05:39:56.217Z,35.06
2024-04-01T05:40:56.255Z,35.09
2024-04-01T05:41:56.276Z,35.11
2024-04-01T05:42:56.299Z,35.03
2024-04-01T05:43:56.337Z,35.06
2024-04-01T05:44:56.348Z,35.13
2024-04-01T05:45:56.387Z,35.10
2024-04-01T05:46:56.428Z,35.08
2024-04-01T05:47:56.483Z,35.10
2024-04-01T05:48:56.530Z,35.10
2024-04-01T05:49:56.572Z,35.08
2024-04-01T05:50:56.608Z,35.11
2024-04-01T05:51:56.740Z,35.11
2024-04-01T05:52:56.705Z,35.07
2024-04-01T05:53:56.735Z,35.10
2024-04-01T05:54:56.770Z,35.07
2024-04-01T05:55:56.805Z,35.13
2024-04-01T05:56:56.917Z,35.06
2024-04-01T05:57:56.858Z,35.11
2024-04-01T05:58:56.872Z,35.07
2024-04-01T05:59:56.882Z,35.08
2024-04-01T06:00:56.933Z,35.14
2024-04-01T06:01:56.961Z,35.08
2024-04-01T06:02:56.967Z,35.11
2024-04-01T06:03:56.978Z,35.09
2024-04-01T06:04:57.012Z,35.06
2024-04-01T06:05:57.024Z,35.09
2024-04-01T06:06:57.048Z,35.06
2024-04-01T06:07:57.081Z,35.05
2024-04-01T06:08:57.099Z,35.04
2024-04-01T06:09:57.141Z,35.06
2024-04-01T06:10:57.161Z,35.06
2024-04-01T06:11:57.185Z,35.10
2024-04-01T06:12:57.216Z,35.03
2024-04-01T06:13:57.230Z,35.08
2024-04-01T06:14:57.219Z,35.08
2024-04-01T06:15:57.258Z,35.05
2024-04-01T06:16:57.288Z,35.03
2024-04-01T06:17:57.316Z,35.10
2024-04-01T06:18:57.305Z,35.12
2024-04-01T06:19:57.308Z,35.13
2024-04-01T06:20:57.345Z,35.06
2024-04-01T06:21:57.380Z,35.08
2024-04-01T06:22:57.385Z,35.08
2024-04-01T06:23:57.393Z,35.08
2024-04-01T06:24:57.390Z,35.03
2024-04-01T06:25:57.407Z,35.06
2024-04-01T06:26:57.438Z,35.05
2024-04-01T06:27:57.484Z,35.08
2024-04-01T06:28:57.501Z,35.08
2024-04-01T06:29:57.508Z,35.06
2024-04-01T06:30:57.554Z,35.07
2024-04-01T06:31:57.570Z,35.08
2024-04-01T06:32:57.652Z,35.07
2024-04-01T06:33:57.716Z,35.09
2024-04-01T06:34:57.747Z,35.12
2024-04-01T06:35:57.820Z,35.13
2024-04-01T06:36:57.855Z,35.09
2024-04-01T06:37:57.892Z,35.09
2024-04-01T06:38:57.904Z,35.08
2024-04-01T06:39:57.917Z,35.12
2024-04-01T06:40:57.936Z,35.08
2024-04-01T06:41:57.972Z,35.10
2024-04-01T06:42:58.011Z,35.12
2024-04-01T06:43:58.033Z,35.08
2024-04-01T06:44:58.055Z,35.08
2024-04-01T06:45:58.071Z,35.08
2024-04-01T06:46:58.115Z,35.07
2024-04-01T06:47:58.204Z,35.09
2024-04-01T06:48:58.232Z,35.10
2024-04-01T06:49:58.265Z,35.08
2024-04-01T06:50:58.330Z,35.09
2024-04-01T06:51:58.414Z,35.14
2024-04-01T06:52:58.440Z,35.09
2024-04-01T06:53:58.494Z,35.04
2024-04-01T06:54:58.558Z,35.10
2024-04-01T06:55:58.597Z,35.10
2024-04-01T06:56:58.656Z,35.09
2024-04-01T06:57:58.700Z,35.12
2024-04-01T06:58:58.765Z,35.08
2024-04-01T06:59:58.833Z,35.08
2024-04-01T07:00:58.909Z,35.08
2024-04-01T07:01:58.968Z,35.08
2024-04-01T07:02:59.038Z,35.12
2024-04-01T07:03:59.111Z,35.10
2024-04-01T07:04:59.177Z,35.08
2024-04-01T07:05:59.257Z,35.12
2024-04-01T07:06:59.309Z,35.11
2024-04-01T07:07:59.370Z,35.09
2024-04-01T07:08:59.425Z,35.09
2024-04-01T07:09:59.464Z,35.10
2024-04-01T07:10:59.535Z,35.09
2024-04-01T07:11:59.602Z,35.09
2024-04-01T07:12:59.661Z,35.12
2024-04-01T07:13:59.712Z,35.04
2024-04-01T07:14:59.782Z,35.09
2024-04-01T07:15:59.835Z,35.07
2024-04-01T07:16:59.892Z,35.11
2024-04-01T07:17:59.943Z,35.11
2024-04-01T07:19:00.017Z,35.11
2024-04-01T07:20:00.073Z,35.09
2024-04-01T07:21:00.100Z,35.09
2024-04-01T07:22:00.128Z,35.11
2024-04-01T07:23:00.233Z,35.09
2024-04-01T07:24:00.204Z,35.08
2024-04-01T07:25:00.300Z,35.06
2024-04-01T07:26:00.331Z,35.13
2024-04-01T07:27:00.355Z,35.11
2024-04-01T07:28:00.397Z,35.13
2024-04-01T07:29:00.457Z,35.11
2024-04-01T07:30:00.522Z,35.11
2024-04-01T07:31:00.532Z,35.09
2024-04-01T07:32:00.585Z,35.07
2024-04-01T07:33:00.902Z,35.10
2024-04-01T07:34:00.696Z,35.06
2024-04-01T07:35:00.849Z,35.07
2024-04-01T07:36:00.815Z,35.10
2024-04-01T07:37:00.863Z,35.11
2024-04-01T07:38:00.925Z,35.07
2024-04-01T07:39:01.040Z,35.09
2024-04-01T07:40:01.022Z,35.12
2024-04-01T07:41:01.076Z,35.11
2024-04-01T07:42:01.119Z,35.12
2024-04-01T07:43:01.187Z,35.08
2024-04-01T07:44:01.233Z,35.12
2024-04-01T07:45:01.290Z,35.08
2024-04-01T07:46:01.339Z,35.10
2024-04-01T07:47:01.410Z,35.07
2024-04-01T07:48:01.441Z,35.07
2024-04-01T07:49:01.524Z,35.08
2024-04-01T07:50:01.563Z,35.08
2024-04-01T07:51:01.621Z,35.07
2024-04-01T07:52:01.641Z,35.06
2024-04-01T07:53:01.688Z,35.09
2024-04-01T07:54:01.756Z,35.03
2024-04-01T07:55:01.819Z,35.03
2024-04-01T07:56:01.868Z,35.04
2024-04-01T07:57:01.909Z,35.03
2024-04-01T07:58:01.960Z,35.08
2024-04-01T07:59:03.946Z,35.06
2024-04-01T08:00:02.002Z,35.03
2024-04-01T08:01:01.999Z,35.06
2024-04-01T08:02:01.979Z,35.07
2024-04-01T08:03:01.973Z,35.10
2024-04-01T08:04:01.954Z,35.03
2024-04-01T08:05:01.942Z,35.03
2024-04-01T08:06:01.931Z,35.09
2024-04-01T08:07:01.910Z,35.03
2024-04-01T08:08:01.909Z,35.05
2024-04-01T08:09:01.883Z,35.04
2024-04-01T08:10:01.880Z,35.03
2024-04-01T08:11:01.861Z,35.04
2024-04-01T08:12:01.845Z,35.03
2024-04-01T08:13:01.843Z,35.01
2024-04-01T08:14:01.827Z,35.03
2024-04-01T08:15:01.820Z,35.02
2024-04-01T08:16:01.825Z,35.00
2024-04-01T08:17:01.784Z,35.03
2024-04-01T08:18:01.775Z,35.03
2024-04-01T08:19:01.776Z,35.03
2024-04-01T08:20:01.747Z,35.05
2024-04-01T08:21:01.738Z,35.02
2024-04-01T08:22:01.733Z,34.99
2024-04-01T08:23:01.714Z,34.98
2024-04-01T08:24:01.721Z,35.02
2024-04-01T08:25:01.709Z,35.00
2024-04-01T08:26:01.701Z,35.02
2024-04-01T08:27:01.687Z,34.95
2024-04-01T08:28:01.666Z,34.98
2024-04-01T08:29:01.664Z,35.02
2024-04-01T08:30:01.652Z,35.02
2024-04-01T08:31:01.623Z,34.96
2024-04-01T08:32:01.602Z,34.96
2024-04-01T08:33:01.583Z,35.01
2024-04-01T08:34:01.578Z,34.98
2024-04-01T08:35:01.552Z,34.96
2024-04-01T08:36:01.532Z,35.00
2024-04-01T08:37:01.530Z,34.98
2024-04-01T08:38:01.514Z,34.97
2024-04-01T08:39:01.549Z,34.96
2024-04-01T08:40:01.614Z,34.98
2024-04-01T08:41:01.668Z,34.96
2024-04-01T08:42:01.714Z,34.98
2024-04-01T08:43:01.785Z,34.95
2024-04-01T08:44:01.819Z,34.98
2024-04-01T08:45:01.869Z,34.97
2024-04-01T08:46:01.930Z,34.96
2024-04-01T08:47:01.976Z,34.95
2024-04-01T08:48:02.034Z,35.00
2024-04-01T08:49:02.093Z,34.96
2024-04-01T08:50:02.133Z,34.96
2024-04-01T08:51:02.201Z,34.98
2024-04-01T08:52:02.228Z,34.95
2024-04-01T08:53:02.282Z,34.97
2024-04-01T08:54:02.344Z,34.90
2024-04-01T08:55:02.394Z,34.95
2024-04-01T08:56:02.466Z,34.97
2024-04-01T08:57:02.494Z,34.96
2024-04-01T08:58:02.551Z,34.96
2024-04-01T08:59:02.595Z,34.89
2024-04-01T09:00:02.645Z,34.92
2024-04-01T09:01:02.697Z,34.94
2024-04-01T09:02:02.749Z,34.94
2024-04-01T09:03:02.804Z,34.92
2024-04-01T09:04:02.855Z,34.95
2024-04-01T09:05:02.926Z,34.91
2024-04-01T09:06:02.956Z,34.91
2024-04-01T09:07:03.013Z,34.91
2024-04-01T09:08:03.061Z,34.95
2024-04-01T09:09:03.119Z,34.90
2024-04-01T09:10:03.197Z,34.90
2024-04-01T09:11:03.191Z,34.90
2024-04-01T09:12:03.241Z,34.89
2024-04-01T09:13:03.278Z,34.93
2024-04-01T09:14:03.317Z,34.91
2024-04-01T09:15:03.377Z,34.89
2024-04-01T09:16:03.409Z,34.88
2024-04-01T09:17:03.485Z,34.94
2024-04-01T09:18:03.502Z,34.88
2024-04-01T09:19:03.553Z,34.85
2024-04-01T09:20:03.586Z,34.84
2024-04-01T09:21:03.638Z,34.88
2024-04-01T09:22:03.690Z,34.87
2024-04-01T09:23:03.734Z,34.81
2024-04-01T09:24:03.787Z,34.83
2024-04-01T09:25:03.812Z,34.84
2024-04-01T09:26:03.847Z,34.82
2024-04-01T09:27:03.915Z,34.83
2024-04-01T09:28:03.943Z,34.79
2024-04-01T09:29:03.974Z,34.80
2024-04-01T09:30:04.000Z,34.84
2024-04-01T09:31:04.021Z,34.76
2024-04-01T09:32:04.062Z,34.76
2024-04-01T09:33:04.091Z,34.78
2024-04-01T09:34:04.137Z,34.76
2024-04-01T09:35:04.171Z,34.79
2024-04-01T09:36:04.229Z,34.74
2024-04-01T09:37:04.236Z,34.75
2024-04-01T09:38:04.274Z,34.79
2024-04-01T09:39:04.312Z,34.76
2024-04-01T09:40:04.347Z,34.81
2024-04-01T09:41:04.389Z,34.80
2024-04-01T09:42:04.419Z,34.77
2024-04-01T09:43:04.457Z,34.75
2024-04-01T09:44:04.499Z,34.78
2024-04-01T09:45:04.533Z,34.75
2024-04-01T09:46:05.432Z,34.75
2024-04-01T09:47:04.771Z,34.72
2024-04-01T09:48:04.635Z,34.78
2024-04-01T09:49:04.680Z,34.70
2024-04-01T09:50:04.702Z,34.74
2024-04-01T09:51:04.737Z,34.75
2024-04-01T09:52:06.565Z,34.68
2024-04-01T09:53:04.764Z,34.72
2024-04-01T09:54:04.752Z,34.70
2024-04-01T09:55:04.739Z,34.68
2024-04-01T09:56:04.741Z,34.70
2024-04-01T09:57:04.741Z,34.67
2024-04-01T09:58:05.034Z,34.74
2024-04-01T09:59:04.727Z,34.71
2024-04-01T10:00:04.718Z,34.69
2024-04-01T10:01:04.708Z,34.71
2024-04-01T10:02:04.698Z,34.69
2024-04-01T10:03:04.717Z,34.72
2024-04-01T10:04:04.679Z,34.71
2024-04-01T10:05:04.651Z,34.69
2024-04-01T10:06:04.640Z,34.70
2024-04-01T10:07:04.627Z,34.66
2024-04-01T10:08:04.618Z,34.71
2024-04-01T10:09:04.600Z,34.67
2024-04-01T10:10:05.386Z,34.67
2024-04-01T10:11:04.584Z,34.64
2024-04-01T10:12:04.556Z,34.63
2024-04-01T10:13:04.548Z,34.65
2024-04-01T10:14:04.546Z,34.64
2024-04-01T10:15:04.516Z,34.63
2024-04-01T10:16:04.500Z,34.58
2024-04-01T10:17:04.487Z,34.63
2024-04-01T10:18:04.465Z,34.63
2024-04-01T10:19:04.459Z,34.64
2024-04-01T10:20:04.436Z,34.63
2024-04-01T10:21:04.431Z,34.63
2024-04-01T10:22:04.409Z,34.62
2024-04-01T10:23:04.381Z,34.63
2024-04-01T10:24:04.374Z,34.59
2024-04-01T10:25:04.356Z,34.59
2024-04-01T10:26:05.111Z,34.62
2024-04-01T10:27:04.326Z,34.58
2024-04-01T10:28:04.300Z,34.58
2024-04-01T10:29:04.281Z,34.57
2024-04-01T10:30:04.266Z,34.59
2024-04-01T10:31:04.238Z,34.62
2024-04-01T10:32:05.454Z,34.60
2024-04-01T10:33:04.218Z,34.55
2024-04-01T10:34:04.214Z,34.57
2024-04-01T10:35:09.316Z,34.59
2024-04-01T10:36:13.748Z,34.53
2024-04-01T10:37:05.172Z,34.53
2024-04-01T10:38:04.160Z,34.55
2024-04-01T10:39:04.139Z,34.54
2024-04-01T10:40:04.148Z,34.53
2024-04-01T10:41:04.115Z,34.59
2024-04-01T10:42:04.109Z,34.56
2024-04-01T10:43:04.089Z,34.56
2024-04-01T10:44:04.074Z,34.55
2024-04-01T10:45:04.067Z,34.60
2024-04-01T10:46:04.043Z,34.59
2024-04-01T10:47:04.026Z,34.59
2024-04-01T10:48:04.232Z,34.61
2024-04-01T10:49:03.987Z,34.57
2024-04-01T10:50:03.963Z,34.61
2024-04-01T10:51:03.946Z,34.59
2024-04-01T10:52:03.934Z,34.62
2024-04-01T10:53:03.903Z,34.62
2024-04-01T10:54:03.895Z,34.57
2024-04-01T10:55:03.897Z,34.60
2024-04-01T10:56:03.869Z,34.64
2024-04-01T10:57:03.843Z,34.66
2024-04-01T10:58:03.813Z,34.63
2024-04-01T10:59:04.834Z,34.64
2024-04-01T11:00:03.796Z,34.61
2024-04-01T11:01:03.767Z,34.61
2024-04-01T11:02:03.831Z,34.60
2024-04-01T11:03:03.745Z,34.63
2024-04-01T11:04:03.727Z,34.65
2024-04-01T11:05:03.706Z,34.65
2024-04-01T11:06:03.693Z,34.63
2024-04-01T11:07:03.689Z,34.61
2024-04-01T11:08:03.670Z,34.63
2024-04-01T11:09:03.654Z,34.59
2024-04-01T11:10:03.630Z,34.62
2024-04-01T11:11:03.630Z,34.60
2024-04-01T11:12:03.619Z,34.64
2024-04-01T11:13:03.608Z,34.65
2024-04-01T11:14:03.584Z,34.63
2024-04-01T11:15:03.583Z,34.61
2024-04-01T11:16:03.601Z,34.57
2024-04-01T11:17:03.641Z,34.56
2024-04-01T11:18:03.656Z,34.57
2024-04-01T11:19:03.677Z,34.57
2024-04-01T11:20:03.715Z,34.59
2024-04-01T11:21:03.715Z,34.54
2024-04-01T11:22:03.743Z,34.56
2024-04-01T11:23:03.763Z,34.54
2024-04-01T11:24:03.787Z,34.54
2024-04-01T11:25:03.802Z,34.54
2024-04-01T11:26:03.927Z,34.49
2024-04-01T11:27:03.833Z,34.47
2024-04-01T11:28:04.422Z,34.49
2024-04-01T11:29:03.903Z,34.49
2024-04-01T11:30:03.931Z,34.52
2024-04-01T11:31:03.912Z,34.46
2024-04-01T11:32:03.932Z,34.50
2024-04-01T11:33:03.964Z,34.46
2024-04-01T11:34:03.976Z,34.50
2024-04-01T11:35:03.983Z,34.49
2024-04-01T11:36:04.001Z,34.46
2024-04-01T11:37:04.019Z,34.46
2024-04-01T11:38:04.043Z,34.50
2024-04-01T11:39:04.050Z,34.46
2024-04-01T11:40:04.080Z,34.47
2024-04-01T11:41:04.087Z,34.54
2024-04-01T11:42:04.112Z,34.51
2024-04-01T11:43:04.111Z,34.52
2024-04-01T11:44:04.139Z,34.52
2024-04-01T11:45:04.156Z,34.53
2024-04-01T11:46:04.161Z,34.53
2024-04-01T11:47:04.170Z,34.53
2024-04-01T11:48:04.191Z,34.50
2024-04-01T11:49:04.216Z,34.56
2024-04-01T11:50:04.241Z,34.53
2024-04-01T11:51:04.254Z,34.56
2024-04-01T11:52:04.265Z,34.56
2024-04-01T11:53:04.284Z,34.58
2024-04-01T11:54:04.314Z,34.53
2024-04-01T11:55:04.322Z,34.54
2024-04-01T11:56:04.341Z,34.60
2024-04-01T11:57:04.355Z,34.57
2024-04-01T11:58:04.375Z,34.56
2024-04-01T11:59:04.398Z,34.63
2024-04-01T12:00:04.414Z,34.61
2024-04-01T12:01:04.441Z,34.57
2024-04-01T12:02:04.477Z,34.59
2024-04-01T12:03:04.500Z,34.61
2024-04-01T12:04:04.519Z,34.60
2024-04-01T12:05:04.533Z,34.63
2024-04-01T12:06:04.555Z,34.60
2024-04-01T12:07:04.576Z,34.60
2024-04-01T12:08:04.603Z,34.65
2024-04-01T12:09:04.635Z,34.65
2024-04-01T12:10:04.669Z,34.65
2024-04-01T12:11:04.682Z,34.66
2024-04-01T12:12:04.702Z,34.63
2024-04-01T12:13:04.715Z,34.70
2024-04-01T12:14:05.082Z,34.64
2024-04-01T12:15:04.765Z,34.68
2024-04-01T12:16:04.788Z,34.66
2024-04-01T12:17:04.799Z,34.66
2024-04-01T12:18:04.850Z,34.68
2024-04-01T12:19:04.849Z,34.71
2024-04-01T12:20:04.875Z,34.67
2024-04-01T12:21:04.882Z,34.70
2024-04-01T12:22:04.902Z,34.70
2024-04-01T12:23:04.926Z,34.68
2024-04-01T12:24:04.958Z,34.74
2024-04-01T12:25:04.962Z,34.74
2024-04-01T12:26:04.997Z,34.76
2024-04-01T12:27:05.017Z,34.73
2024-04-01T12:28:05.031Z,34.77
2024-04-01T12:29:05.070Z,34.78
2024-04-01T12:30:05.080Z,34.81
2024-04-01T12:31:05.108Z,34.78
2024-04-01T12:32:05.118Z,34.77
2024-04-01T12:33:09.993Z,34.80
2024-04-01T12:34:06.134Z,34.81
2024-04-01T12:35:05.110Z,34.83
2024-04-01T12:36:05.081Z,34.83
2024-04-01T12:37:05.060Z,34.83
2024-04-01T12:38:05.045Z,34.83
2024-04-01T12:39:05.029Z,34.83
2024-04-01T12:40:05.027Z,34.88
2024-04-01T12:41:05.003Z,34.89
2024-04-01T12:42:04.987Z,34.86
2024-04-01T12:43:04.970Z,34.86
2024-04-01T12:44:04.954Z,34.89
2024-04-01T12:45:04.950Z,34.90
2024-04-01T12:46:04.949Z,34.88
2024-04-01T12:47:04.966Z,34.90
2024-04-01T12:48:05.055Z,34.90
2024-04-01T12:49:05.028Z,34.90
2024-04-01T12:50:05.053Z,34.88
2024-04-01T12:51:05.094Z,34.92
2024-04-01T12:52:05.128Z,34.90
2024-04-01T12:53:05.166Z,34.93